sensor_id;sensor_type;location;lat;lon;timestamp;P1;durP1;ratioP1;P2;durP2;ratioP2
38972;SDS011;25333;50.762;4.470;2023-01-13T00:00:33;6.75;;;1.63;;
38972;SDS011;25333;50.762;4.470;2023-01-13T00:02:59;3.03;;;0.70;;
38972;SDS011;25333;50.762;4.470;2023-01-13T00:05:25;10.07;;;1.02;;
38972;SDS011;25333;50.762;4.470;2023-01-13T00:07:51;4.22;;;1.10;;
38972;SDS011;25333;50.762;4.470;2023-01-13T00:10:17;6.70;;;0.75;;
38972;SDS011;25333;50.762;4.470;2023-01-13T00:12:42;9.97;;;1.40;;
38972;SDS011;25333;50.762;4.470;2023-01-13T00:15:10;6.38;;;1.23;;
38972;SDS011;25333;50.762;4.470;2023-01-13T00:17:35;8.20;;;1.58;;
38972;SDS011;25333;50.762;4.470;2023-01-13T00:20:02;4.50;;;1.25;;
38972;SDS011;25333;50.762;4.470;2023-01-13T00:22:31;6.97;;;1.42;;
38972;SDS011;25333;50.762;4.470;2023-01-13T00:24:59;9.02;;;1.45;;
38972;SDS011;25333;50.762;4.470;2023-01-13T00:27:25;9.13;;;1.40;;
38972;SDS011;25333;50.762;4.470;2023-01-13T00:29:51;10.23;;;2.30;;
38972;SDS011;25333;50.762;4.470;2023-01-13T00:32:17;9.77;;;2.05;;
38972;SDS011;25333;50.762;4.470;2023-01-13T00:34:43;9.73;;;1.83;;
38972;SDS011;25333;50.762;4.470;2023-01-13T00:37:08;7.38;;;1.88;;
38972;SDS011;25333;50.762;4.470;2023-01-13T00:39:37;6.18;;;1.38;;
38972;SDS011;25333;50.762;4.470;2023-01-13T00:42:02;8.60;;;1.70;;
38972;SDS011;25333;50.762;4.470;2023-01-13T00:44:47;8.15;;;1.75;;
38972;SDS011;25333;50.762;4.470;2023-01-13T00:47:12;8.33;;;1.77;;
38972;SDS011;25333;50.762;4.470;2023-01-13T00:49:38;9.00;;;1.55;;
38972;SDS011;25333;50.762;4.470;2023-01-13T00:52:04;9.18;;;1.90;;
38972;SDS011;25333;50.762;4.470;2023-01-13T00:54:30;7.90;;;1.55;;
38972;SDS011;25333;50.762;4.470;2023-01-13T00:56:56;5.83;;;1.40;;
38972;SDS011;25333;50.762;4.470;2023-01-13T00:59:21;11.13;;;1.92;;
38972;SDS011;25333;50.762;4.470;2023-01-13T01:01:47;9.43;;;1.88;;
38972;SDS011;25333;50.762;4.470;2023-01-13T01:04:12;6.87;;;1.33;;
38972;SDS011;25333;50.762;4.470;2023-01-13T01:06:45;8.73;;;1.65;;
38972;SDS011;25333;50.762;4.470;2023-01-13T01:09:14;6.53;;;1.52;;
38972;SDS011;25333;50.762;4.470;2023-01-13T01:11:41;11.88;;;2.03;;
38972;SDS011;25333;50.762;4.470;2023-01-13T01:14:08;5.68;;;1.77;;
38972;SDS011;25333;50.762;4.470;2023-01-13T01:16:36;5.43;;;1.43;;
38972;SDS011;25333;50.762;4.470;2023-01-13T01:19:04;7.97;;;1.40;;
38972;SDS011;25333;50.762;4.470;2023-01-13T01:21:29;8.15;;;1.33;;
38972;SDS011;25333;50.762;4.470;2023-01-13T01:23:57;5.38;;;1.58;;
38972;SDS011;25333;50.762;4.470;2023-01-13T01:26:40;6.63;;;1.57;;
38972;SDS011;25333;50.762;4.470;2023-01-13T01:29:06;5.55;;;1.27;;
38972;SDS011;25333;50.762;4.470;2023-01-13T01:31:31;6.95;;;1.20;;
38972;SDS011;25333;50.762;4.470;2023-01-13T01:33:58;5.88;;;0.88;;
38972;SDS011;25333;50.762;4.470;2023-01-13T01:36:25;5.07;;;0.88;;
38972;SDS011;25333;50.762;4.470;2023-01-13T01:38:54;5.75;;;0.90;;
38972;SDS011;25333;50.762;4.470;2023-01-13T01:41:22;7.23;;;1.50;;
38972;SDS011;25333;50.762;4.470;2023-01-13T01:44:00;9.88;;;1.15;;
38972;SDS011;25333;50.762;4.470;2023-01-13T01:46:58;7.20;;;1.15;;
38972;SDS011;25333;50.762;4.470;2023-01-13T01:49:31;5.68;;;1.33;;
38972;SDS011;25333;50.762;4.470;2023-01-13T01:52:00;6.80;;;1.02;;
38972;SDS011;25333;50.762;4.470;2023-01-13T01:54:32;7.70;;;1.40;;
38972;SDS011;25333;50.762;4.470;2023-01-13T01:57:31;7.85;;;1.02;;
38972;SDS011;25333;50.762;4.470;2023-01-13T02:00:02;6.55;;;1.48;;
38972;SDS011;25333;50.762;4.470;2023-01-13T02:02:29;7.88;;;1.58;;
38972;SDS011;25333;50.762;4.470;2023-01-13T02:04:54;11.50;;;1.33;;
38972;SDS011;25333;50.762;4.470;2023-01-13T02:07:25;9.75;;;1.50;;
38972;SDS011;25333;50.762;4.470;2023-01-13T02:09:56;10.27;;;2.28;;
38972;SDS011;25333;50.762;4.470;2023-01-13T02:12:44;10.18;;;1.73;;
38972;SDS011;25333;50.762;4.470;2023-01-13T02:15:19;7.30;;;1.45;;
38972;SDS011;25333;50.762;4.470;2023-01-13T02:38:07;7.55;;;1.50;;
38972;SDS011;25333;50.762;4.470;2023-01-13T02:46:21;12.63;;;1.83;;
38972;SDS011;25333;50.762;4.470;2023-01-13T02:48:51;9.98;;;2.10;;
38972;SDS011;25333;50.762;4.470;2023-01-13T02:51:21;7.85;;;1.83;;
38972;SDS011;25333;50.762;4.470;2023-01-13T02:53:52;10.85;;;1.77;;
38972;SDS011;25333;50.762;4.470;2023-01-13T02:56:24;8.10;;;2.22;;
38972;SDS011;25333;50.762;4.470;2023-01-13T02:58:51;8.98;;;2.08;;
38972;SDS011;25333;50.762;4.470;2023-01-13T03:01:20;7.28;;;1.67;;
38972;SDS011;25333;50.762;4.470;2023-01-13T03:03:46;5.45;;;1.25;;
38972;SDS011;25333;50.762;4.470;2023-01-13T03:09:25;11.18;;;1.92;;
38972;SDS011;25333;50.762;4.470;2023-01-13T03:18:01;10.50;;;1.38;;
38972;SDS011;25333;50.762;4.470;2023-01-13T03:20:50;11.45;;;2.25;;
38972;SDS011;25333;50.762;4.470;2023-01-13T03:23:45;9.30;;;2.00;;
38972;SDS011;25333;50.762;4.470;2023-01-13T03:27:19;9.50;;;1.92;;
38972;SDS011;25333;50.762;4.470;2023-01-13T03:29:19;13.60;;;2.03;;
38972;SDS011;25333;50.762;4.470;2023-01-13T03:31:50;10.35;;;2.00;;
38972;SDS011;25333;50.762;4.470;2023-01-13T03:34:24;11.23;;;1.90;;
38972;SDS011;25333;50.762;4.470;2023-01-13T03:37:01;8.13;;;1.67;;
38972;SDS011;25333;50.762;4.470;2023-01-13T03:39:31;5.60;;;1.52;;
38972;SDS011;25333;50.762;4.470;2023-01-13T03:42:03;8.38;;;1.60;;
38972;SDS011;25333;50.762;4.470;2023-01-13T03:44:43;5.35;;;1.30;;
38972;SDS011;25333;50.762;4.470;2023-01-13T03:47:26;9.38;;;1.80;;
38972;SDS011;25333;50.762;4.470;2023-01-13T03:52:36;5.13;;;1.30;;
38972;SDS011;25333;50.762;4.470;2023-01-13T03:55:18;7.22;;;1.60;;
38972;SDS011;25333;50.762;4.470;2023-01-13T03:57:57;8.70;;;1.75;;
38972;SDS011;25333;50.762;4.470;2023-01-13T04:00:31;7.30;;;1.50;;
38972;SDS011;25333;50.762;4.470;2023-01-13T04:03:12;7.15;;;1.88;;
38972;SDS011;25333;50.762;4.470;2023-01-13T04:05:45;5.03;;;0.95;;
38972;SDS011;25333;50.762;4.470;2023-01-13T04:08:19;6.13;;;1.38;;
38972;SDS011;25333;50.762;4.470;2023-01-13T04:10:56;6.03;;;1.17;;
38972;SDS011;25333;50.762;4.470;2023-01-13T04:13:35;7.60;;;1.40;;
38972;SDS011;25333;50.762;4.470;2023-01-13T04:16:04;4.05;;;1.08;;
38972;SDS011;25333;50.762;4.470;2023-01-13T04:18:35;10.43;;;1.58;;
38972;SDS011;25333;50.762;4.470;2023-01-13T04:21:02;3.90;;;1.10;;
38972;SDS011;25333;50.762;4.470;2023-01-13T04:23:29;4.00;;;0.88;;
38972;SDS011;25333;50.762;4.470;2023-01-13T04:25:55;7.00;;;1.23;;
38972;SDS011;25333;50.762;4.470;2023-01-13T04:28:21;7.28;;;0.98;;
38972;SDS011;25333;50.762;4.470;2023-01-13T04:30:47;6.70;;;0.77;;
38972;SDS011;25333;50.762;4.470;2023-01-13T04:33:14;9.23;;;1.10;;
38972;SDS011;25333;50.762;4.470;2023-01-13T04:35:40;4.15;;;1.25;;
38972;SDS011;25333;50.762;4.470;2023-01-13T04:38:09;6.90;;;1.10;;
38972;SDS011;25333;50.762;4.470;2023-01-13T04:40:44;11.73;;;1.80;;
38972;SDS011;25333;50.762;4.470;2023-01-13T04:43:10;9.00;;;1.10;;
38972;SDS011;25333;50.762;4.470;2023-01-13T04:45:36;6.68;;;1.23;;
38972;SDS011;25333;50.762;4.470;2023-01-13T04:48:02;6.47;;;1.45;;
38972;SDS011;25333;50.762;4.470;2023-01-13T04:50:28;8.82;;;1.67;;
38972;SDS011;25333;50.762;4.470;2023-01-13T04:52:54;9.52;;;1.27;;
38972;SDS011;25333;50.762;4.470;2023-01-13T04:55:20;4.28;;;0.82;;
38972;SDS011;25333;50.762;4.470;2023-01-13T04:57:47;8.98;;;1.80;;
38972;SDS011;25333;50.762;4.470;2023-01-13T05:00:14;9.03;;;1.40;;
38972;SDS011;25333;50.762;4.470;2023-01-13T05:02:41;5.22;;;1.02;;
38972;SDS011;25333;50.762;4.470;2023-01-13T05:05:10;5.72;;;1.00;;
38972;SDS011;25333;50.762;4.470;2023-01-13T05:07:35;5.50;;;1.30;;
38972;SDS011;25333;50.762;4.470;2023-01-13T05:10:03;3.55;;;0.60;;
38972;SDS011;25333;50.762;4.470;2023-01-13T05:12:29;8.57;;;1.48;;
38972;SDS011;25333;50.762;4.470;2023-01-13T05:15:13;5.03;;;0.77;;
38972;SDS011;25333;50.762;4.470;2023-01-13T05:17:57;8.48;;;0.68;;
38972;SDS011;25333;50.762;4.470;2023-01-13T05:20:24;5.47;;;1.00;;
38972;SDS011;25333;50.762;4.470;2023-01-13T05:22:49;5.00;;;1.10;;
38972;SDS011;25333;50.762;4.470;2023-01-13T05:25:34;5.72;;;1.30;;
38972;SDS011;25333;50.762;4.470;2023-01-13T05:28:03;8.48;;;0.95;;
38972;SDS011;25333;50.762;4.470;2023-01-13T05:30:31;8.60;;;1.03;;
38972;SDS011;25333;50.762;4.470;2023-01-13T05:33:00;8.45;;;1.35;;
38972;SDS011;25333;50.762;4.470;2023-01-13T05:35:26;10.77;;;1.52;;
38972;SDS011;25333;50.762;4.470;2023-01-13T05:37:53;4.97;;;0.70;;
38972;SDS011;25333;50.762;4.470;2023-01-13T05:40:19;3.97;;;0.88;;
38972;SDS011;25333;50.762;4.470;2023-01-13T05:43:05;3.00;;;1.00;;
38972;SDS011;25333;50.762;4.470;2023-01-13T05:48:31;6.00;;;1.08;;
38972;SDS011;25333;50.762;4.470;2023-01-13T05:50:59;4.40;;;0.82;;
38972;SDS011;25333;50.762;4.470;2023-01-13T05:53:25;5.28;;;1.10;;
38972;SDS011;25333;50.762;4.470;2023-01-13T05:55:51;6.57;;;0.70;;
38972;SDS011;25333;50.762;4.470;2023-01-13T05:58:17;8.25;;;1.30;;
38972;SDS011;25333;50.762;4.470;2023-01-13T06:00:44;6.50;;;1.35;;
38972;SDS011;25333;50.762;4.470;2023-01-13T06:03:10;5.33;;;1.20;;
38972;SDS011;25333;50.762;4.470;2023-01-13T06:05:37;4.72;;;0.93;;
38972;SDS011;25333;50.762;4.470;2023-01-13T06:08:04;7.75;;;1.92;;
38972;SDS011;25333;50.762;4.470;2023-01-13T06:10:31;7.63;;;1.52;;
38972;SDS011;25333;50.762;4.470;2023-01-13T06:12:57;4.47;;;1.25;;
38972;SDS011;25333;50.762;4.470;2023-01-13T06:15:26;6.93;;;1.88;;
38972;SDS011;25333;50.762;4.470;2023-01-13T06:17:52;8.02;;;1.38;;
38972;SDS011;25333;50.762;4.470;2023-01-13T06:20:17;11.10;;;2.28;;
38972;SDS011;25333;50.762;4.470;2023-01-13T06:22:47;5.70;;;1.57;;
38972;SDS011;25333;50.762;4.470;2023-01-13T06:25:35;12.43;;;2.20;;
38972;SDS011;25333;50.762;4.470;2023-01-13T06:28:05;8.88;;;2.35;;
38972;SDS011;25333;50.762;4.470;2023-01-13T06:30:36;14.00;;;3.50;;
38972;SDS011;25333;50.762;4.470;2023-01-13T06:33:06;10.43;;;2.42;;
38972;SDS011;25333;50.762;4.470;2023-01-13T06:35:35;11.52;;;2.30;;
38972;SDS011;25333;50.762;4.470;2023-01-13T06:38:02;7.90;;;2.00;;
38972;SDS011;25333;50.762;4.470;2023-01-13T06:40:32;15.27;;;2.87;;
38972;SDS011;25333;50.762;4.470;2023-01-13T06:42:59;19.20;;;3.15;;
38972;SDS011;25333;50.762;4.470;2023-01-13T06:45:47;13.88;;;2.72;;
38972;SDS011;25333;50.762;4.470;2023-01-13T06:48:16;11.82;;;3.05;;
38972;SDS011;25333;50.762;4.470;2023-01-13T06:50:43;11.63;;;2.47;;
38972;SDS011;25333;50.762;4.470;2023-01-13T06:53:08;16.90;;;3.00;;
38972;SDS011;25333;50.762;4.470;2023-01-13T06:55:34;11.68;;;2.45;;
38972;SDS011;25333;50.762;4.470;2023-01-13T06:58:00;13.80;;;2.40;;
38972;SDS011;25333;50.762;4.470;2023-01-13T07:00:25;9.60;;;2.73;;
38972;SDS011;25333;50.762;4.470;2023-01-13T07:02:51;10.25;;;2.25;;
38972;SDS011;25333;50.762;4.470;2023-01-13T07:05:18;16.00;;;3.08;;
38972;SDS011;25333;50.762;4.470;2023-01-13T07:07:44;9.40;;;2.77;;
38972;SDS011;25333;50.762;4.470;2023-01-13T07:10:12;14.83;;;3.00;;
38972;SDS011;25333;50.762;4.470;2023-01-13T07:12:46;11.90;;;3.05;;
38972;SDS011;25333;50.762;4.470;2023-01-13T07:15:33;10.95;;;2.78;;
38972;SDS011;25333;50.762;4.470;2023-01-13T07:17:59;15.70;;;4.38;;
38972;SDS011;25333;50.762;4.470;2023-01-13T07:20:25;17.30;;;3.08;;
38972;SDS011;25333;50.762;4.470;2023-01-13T07:22:52;8.98;;;3.33;;
38972;SDS011;25333;50.762;4.470;2023-01-13T07:25:19;14.27;;;3.03;;
38972;SDS011;25333;50.762;4.470;2023-01-13T07:27:45;13.20;;;3.77;;
38972;SDS011;25333;50.762;4.470;2023-01-13T07:30:10;14.93;;;2.57;;
38972;SDS011;25333;50.762;4.470;2023-01-13T07:32:36;17.97;;;3.90;;
38972;SDS011;25333;50.762;4.470;2023-01-13T07:35:02;9.63;;;2.50;;
38972;SDS011;25333;50.762;4.470;2023-01-13T07:37:34;15.23;;;3.03;;
38972;SDS011;25333;50.762;4.470;2023-01-13T07:40:02;10.75;;;2.65;;
38972;SDS011;25333;50.762;4.470;2023-01-13T07:42:28;9.73;;;2.42;;
38972;SDS011;25333;50.762;4.470;2023-01-13T07:45:12;12.60;;;2.65;;
38972;SDS011;25333;50.762;4.470;2023-01-13T07:47:39;11.10;;;2.85;;
38972;SDS011;25333;50.762;4.470;2023-01-13T07:50:06;17.98;;;3.45;;
38972;SDS011;25333;50.762;4.470;2023-01-13T07:52:34;9.00;;;2.22;;
38972;SDS011;25333;50.762;4.470;2023-01-13T07:54:59;12.07;;;3.38;;
38972;SDS011;25333;50.762;4.470;2023-01-13T07:57:25;11.30;;;3.10;;
38972;SDS011;25333;50.762;4.470;2023-01-13T07:59:50;18.50;;;4.18;;
38972;SDS011;25333;50.762;4.470;2023-01-13T08:02:16;10.57;;;2.60;;
38972;SDS011;25333;50.762;4.470;2023-01-13T08:04:42;15.32;;;3.38;;
38972;SDS011;25333;50.762;4.470;2023-01-13T08:07:07;19.02;;;3.75;;
38972;SDS011;25333;50.762;4.470;2023-01-13T08:09:33;11.37;;;2.90;;
38972;SDS011;25333;50.762;4.470;2023-01-13T08:11:58;13.82;;;3.20;;
38972;SDS011;25333;50.762;4.470;2023-01-13T08:14:53;11.48;;;3.17;;
38972;SDS011;25333;50.762;4.470;2023-01-13T08:17:19;19.07;;;3.70;;
38972;SDS011;25333;50.762;4.470;2023-01-13T08:19:44;16.20;;;3.78;;
38972;SDS011;25333;50.762;4.470;2023-01-13T08:22:10;10.80;;;3.05;;
38972;SDS011;25333;50.762;4.470;2023-01-13T08:24:36;10.90;;;2.70;;
38972;SDS011;25333;50.762;4.470;2023-01-13T08:27:01;13.55;;;3.20;;
38972;SDS011;25333;50.762;4.470;2023-01-13T08:29:27;13.03;;;3.23;;
38972;SDS011;25333;50.762;4.470;2023-01-13T08:31:53;18.13;;;2.65;;
38972;SDS011;25333;50.762;4.470;2023-01-13T08:34:18;16.88;;;3.33;;
38972;SDS011;25333;50.762;4.470;2023-01-13T08:36:44;13.80;;;3.43;;
38972;SDS011;25333;50.762;4.470;2023-01-13T08:39:10;11.23;;;3.20;;
38972;SDS011;25333;50.762;4.470;2023-01-13T08:41:36;11.97;;;3.70;;
38972;SDS011;25333;50.762;4.470;2023-01-13T08:44:20;11.40;;;2.63;;
38972;SDS011;25333;50.762;4.470;2023-01-13T08:46:54;17.05;;;3.20;;
38972;SDS011;25333;50.762;4.470;2023-01-13T08:49:21;20.55;;;3.15;;
38972;SDS011;25333;50.762;4.470;2023-01-13T08:51:47;14.63;;;3.07;;
38972;SDS011;25333;50.762;4.470;2023-01-13T08:54:14;11.65;;;2.78;;
38972;SDS011;25333;50.762;4.470;2023-01-13T08:56:43;14.40;;;3.35;;
38972;SDS011;25333;50.762;4.470;2023-01-13T08:59:13;11.90;;;2.90;;
38972;SDS011;25333;50.762;4.470;2023-01-13T09:01:40;15.13;;;3.00;;
38972;SDS011;25333;50.762;4.470;2023-01-13T09:04:06;12.93;;;3.28;;
38972;SDS011;25333;50.762;4.470;2023-01-13T09:06:38;13.65;;;3.05;;
38972;SDS011;25333;50.762;4.470;2023-01-13T09:09:05;16.10;;;3.47;;
38972;SDS011;25333;50.762;4.470;2023-01-13T09:11:32;14.82;;;4.15;;
38972;SDS011;25333;50.762;4.470;2023-01-13T09:14:19;18.63;;;3.63;;
38972;SDS011;25333;50.762;4.470;2023-01-13T09:16:47;11.55;;;2.92;;
38972;SDS011;25333;50.762;4.470;2023-01-13T09:19:13;22.03;;;3.53;;
38972;SDS011;25333;50.762;4.470;2023-01-13T09:21:39;22.52;;;3.60;;
38972;SDS011;25333;50.762;4.470;2023-01-13T09:24:04;12.32;;;2.65;;
38972;SDS011;25333;50.762;4.470;2023-01-13T09:26:30;11.60;;;2.85;;
38972;SDS011;25333;50.762;4.470;2023-01-13T09:28:56;13.45;;;2.85;;
38972;SDS011;25333;50.762;4.470;2023-01-13T09:31:22;17.37;;;3.80;;
38972;SDS011;25333;50.762;4.470;2023-01-13T09:33:47;12.10;;;3.17;;
38972;SDS011;25333;50.762;4.470;2023-01-13T09:36:31;17.90;;;3.55;;
38972;SDS011;25333;50.762;4.470;2023-01-13T09:38:57;10.07;;;2.53;;
38972;SDS011;25333;50.762;4.470;2023-01-13T09:41:23;13.37;;;3.50;;
38972;SDS011;25333;50.762;4.470;2023-01-13T09:44:30;12.02;;;3.05;;
38972;SDS011;25333;50.762;4.470;2023-01-13T09:47:13;16.13;;;3.17;;
38972;SDS011;25333;50.762;4.470;2023-01-13T09:50:02;13.93;;;3.45;;
38972;SDS011;25333;50.762;4.470;2023-01-13T09:52:34;9.85;;;3.03;;
38972;SDS011;25333;50.762;4.470;2023-01-13T09:55:05;21.63;;;3.65;;
38972;SDS011;25333;50.762;4.470;2023-01-13T09:57:46;17.40;;;4.25;;
38972;SDS011;25333;50.762;4.470;2023-01-13T10:00:22;15.00;;;3.20;;
38972;SDS011;25333;50.762;4.470;2023-01-13T10:05:44;10.63;;;2.67;;
38972;SDS011;25333;50.762;4.470;2023-01-13T10:08:21;14.25;;;3.40;;
38972;SDS011;25333;50.762;4.470;2023-01-13T10:10:58;14.85;;;2.92;;
38972;SDS011;25333;50.762;4.470;2023-01-13T10:13:45;12.90;;;3.42;;
38972;SDS011;25333;50.762;4.470;2023-01-13T10:16:24;17.00;;;3.67;;
38972;SDS011;25333;50.762;4.470;2023-01-13T10:19:08;16.23;;;3.78;;
38972;SDS011;25333;50.762;4.470;2023-01-13T10:27:35;11.35;;;2.60;;
38972;SDS011;25333;50.762;4.470;2023-01-13T10:32:42;17.63;;;3.78;;
38972;SDS011;25333;50.762;4.470;2023-01-13T10:35:11;10.93;;;2.22;;
38972;SDS011;25333;50.762;4.470;2023-01-13T10:37:36;12.25;;;2.67;;
38972;SDS011;25333;50.762;4.470;2023-01-13T10:40:03;12.17;;;3.30;;
38972;SDS011;25333;50.762;4.470;2023-01-13T10:42:31;16.40;;;3.88;;
38972;SDS011;25333;50.762;4.470;2023-01-13T10:44:58;13.30;;;3.88;;
38972;SDS011;25333;50.762;4.470;2023-01-13T10:47:25;14.13;;;3.63;;
38972;SDS011;25333;50.762;4.470;2023-01-13T10:53:01;14.27;;;3.50;;
38972;SDS011;25333;50.762;4.470;2023-01-13T10:55:59;13.73;;;3.53;;
38972;SDS011;25333;50.762;4.470;2023-01-13T10:58:26;12.70;;;3.30;;
38972;SDS011;25333;50.762;4.470;2023-01-13T11:01:01;9.93;;;3.33;;
38972;SDS011;25333;50.762;4.470;2023-01-13T11:03:38;18.92;;;4.07;;
38972;SDS011;25333;50.762;4.470;2023-01-13T11:06:07;12.80;;;4.13;;
38972;SDS011;25333;50.762;4.470;2023-01-13T11:08:43;11.90;;;3.05;;
38972;SDS011;25333;50.762;4.470;2023-01-13T11:13:59;11.73;;;3.85;;
38972;SDS011;25333;50.762;4.470;2023-01-13T11:16:48;14.93;;;3.95;;
38972;SDS011;25333;50.762;4.470;2023-01-13T11:19:17;15.20;;;3.35;;
38972;SDS011;25333;50.762;4.470;2023-01-13T11:24:37;23.73;;;5.05;;
38972;SDS011;25333;50.762;4.470;2023-01-13T11:27:18;13.98;;;3.80;;
38972;SDS011;25333;50.762;4.470;2023-01-13T11:30:19;13.32;;;3.75;;
38972;SDS011;25333;50.762;4.470;2023-01-13T11:32:56;9.85;;;3.33;;
38972;SDS011;25333;50.762;4.470;2023-01-13T11:35:24;12.15;;;3.20;;
38972;SDS011;25333;50.762;4.470;2023-01-13T11:37:52;11.63;;;3.25;;
38972;SDS011;25333;50.762;4.470;2023-01-13T11:43:02;14.17;;;3.33;;
38972;SDS011;25333;50.762;4.470;2023-01-13T11:45:48;12.55;;;3.90;;
38972;SDS011;25333;50.762;4.470;2023-01-13T11:48:20;15.90;;;3.78;;
38972;SDS011;25333;50.762;4.470;2023-01-13T12:02:01;17.38;;;4.32;;
38972;SDS011;25333;50.762;4.470;2023-01-13T12:16:35;14.85;;;4.13;;
38972;SDS011;25333;50.762;4.470;2023-01-13T12:19:26;15.45;;;4.05;;
38972;SDS011;25333;50.762;4.470;2023-01-13T12:22:14;11.70;;;3.58;;
38972;SDS011;25333;50.762;4.470;2023-01-13T12:24:57;16.40;;;3.35;;
38972;SDS011;25333;50.762;4.470;2023-01-13T12:36:49;10.55;;;3.13;;
38972;SDS011;25333;50.762;4.470;2023-01-13T12:51:27;11.65;;;2.95;;
38972;SDS011;25333;50.762;4.470;2023-01-13T13:02:38;11.63;;;2.83;;
38972;SDS011;25333;50.762;4.470;2023-01-13T13:07:50;15.98;;;2.90;;
38972;SDS011;25333;50.762;4.470;2023-01-13T13:10:35;12.23;;;2.67;;
38972;SDS011;25333;50.762;4.470;2023-01-13T13:13:11;11.32;;;2.95;;
38972;SDS011;25333;50.762;4.470;2023-01-13T13:15:47;9.53;;;2.10;;
38972;SDS011;25333;50.762;4.470;2023-01-13T13:21:09;9.80;;;2.50;;
38972;SDS011;25333;50.762;4.470;2023-01-13T13:23:36;9.00;;;2.10;;
38972;SDS011;25333;50.762;4.470;2023-01-13T13:26:14;17.83;;;3.47;;
38972;SDS011;25333;50.762;4.470;2023-01-13T13:37:02;12.35;;;2.65;;
38972;SDS011;25333;50.762;4.470;2023-01-13T13:39:50;11.75;;;2.85;;
38972;SDS011;25333;50.762;4.470;2023-01-13T13:42:45;10.20;;;2.63;;
38972;SDS011;25333;50.762;4.470;2023-01-13T13:45:37;11.05;;;2.38;;
38972;SDS011;25333;50.762;4.470;2023-01-13T13:48:31;14.90;;;3.20;;
38972;SDS011;25333;50.762;4.470;2023-01-13T13:50:59;14.35;;;3.15;;
38972;SDS011;25333;50.762;4.470;2023-01-13T13:53:32;8.80;;;3.00;;
38972;SDS011;25333;50.762;4.470;2023-01-13T13:56:05;12.55;;;2.65;;
38972;SDS011;25333;50.762;4.470;2023-01-13T13:58:45;10.95;;;2.95;;
38972;SDS011;25333;50.762;4.470;2023-01-13T14:01:28;12.57;;;2.45;;
38972;SDS011;25333;50.762;4.470;2023-01-13T14:04:10;14.07;;;3.00;;
38972;SDS011;25333;50.762;4.470;2023-01-13T14:06:55;10.52;;;2.53;;
38972;SDS011;25333;50.762;4.470;2023-01-13T14:09:37;10.23;;;2.72;;
38972;SDS011;25333;50.762;4.470;2023-01-13T14:12:12;14.18;;;2.90;;
38972;SDS011;25333;50.762;4.470;2023-01-13T14:14:42;11.57;;;2.55;;
38972;SDS011;25333;50.762;4.470;2023-01-13T14:17:43;13.60;;;3.30;;
38972;SDS011;25333;50.762;4.470;2023-01-13T14:20:06;11.32;;;2.72;;
38972;SDS011;25333;50.762;4.470;2023-01-13T14:22:39;11.85;;;2.65;;
38972;SDS011;25333;50.762;4.470;2023-01-13T14:25:25;6.77;;;1.63;;
38972;SDS011;25333;50.762;4.470;2023-01-13T14:27:57;11.57;;;2.50;;
38972;SDS011;25333;50.762;4.470;2023-01-13T14:30:36;18.20;;;3.05;;
38972;SDS011;25333;50.762;4.470;2023-01-13T14:33:11;9.15;;;2.53;;
38972;SDS011;25333;50.762;4.470;2023-01-13T14:36:20;15.02;;;3.05;;
38972;SDS011;25333;50.762;4.470;2023-01-13T14:39:34;12.48;;;2.50;;
38972;SDS011;25333;50.762;4.470;2023-01-13T14:41:45;6.80;;;2.05;;
38972;SDS011;25333;50.762;4.470;2023-01-13T14:46:39;8.57;;;3.03;;
38972;SDS011;25333;50.762;4.470;2023-01-13T14:49:40;11.70;;;2.53;;
38972;SDS011;25333;50.762;4.470;2023-01-13T14:52:14;10.68;;;2.90;;
38972;SDS011;25333;50.762;4.470;2023-01-13T14:57:28;12.23;;;2.73;;
38972;SDS011;25333;50.762;4.470;2023-01-13T15:08:47;9.85;;;1.95;;
38972;SDS011;25333;50.762;4.470;2023-01-13T15:11:24;13.60;;;3.10;;
38972;SDS011;25333;50.762;4.470;2023-01-13T15:13:59;7.72;;;2.03;;
38972;SDS011;25333;50.762;4.470;2023-01-13T15:17:01;12.68;;;2.83;;
38972;SDS011;25333;50.762;4.470;2023-01-13T15:20:21;13.25;;;2.90;;
38972;SDS011;25333;50.762;4.470;2023-01-13T15:29:28;9.18;;;2.47;;
38972;SDS011;25333;50.762;4.470;2023-01-13T15:37:41;8.87;;;2.63;;
38972;SDS011;25333;50.762;4.470;2023-01-13T15:40:29;11.70;;;3.33;;
38972;SDS011;25333;50.762;4.470;2023-01-13T15:43:00;10.30;;;2.60;;
38972;SDS011;25333;50.762;4.470;2023-01-13T15:46:20;9.13;;;2.73;;
38972;SDS011;25333;50.762;4.470;2023-01-13T15:52:29;12.80;;;2.65;;
38972;SDS011;25333;50.762;4.470;2023-01-13T15:57:52;11.18;;;3.30;;
38972;SDS011;25333;50.762;4.470;2023-01-13T16:00:18;16.95;;;3.65;;
38972;SDS011;25333;50.762;4.470;2023-01-13T16:02:52;11.15;;;3.03;;
38972;SDS011;25333;50.762;4.470;2023-01-13T16:05:24;11.13;;;3.17;;
38972;SDS011;25333;50.762;4.470;2023-01-13T16:07:53;13.30;;;3.03;;
38972;SDS011;25333;50.762;4.470;2023-01-13T16:10:23;11.25;;;2.53;;
38972;SDS011;25333;50.762;4.470;2023-01-13T16:12:51;11.80;;;3.25;;
38972;SDS011;25333;50.762;4.470;2023-01-13T16:15:18;13.55;;;2.55;;
38972;SDS011;25333;50.762;4.470;2023-01-13T16:17:50;11.95;;;2.95;;
38972;SDS011;25333;50.762;4.470;2023-01-13T16:20:23;17.13;;;3.42;;
38972;SDS011;25333;50.762;4.470;2023-01-13T16:23:10;9.37;;;2.70;;
38972;SDS011;25333;50.762;4.470;2023-01-13T16:25:49;17.00;;;3.25;;
38972;SDS011;25333;50.762;4.470;2023-01-13T16:28:24;16.30;;;3.53;;
38972;SDS011;25333;50.762;4.470;2023-01-13T16:30:58;19.63;;;5.05;;
38972;SDS011;25333;50.762;4.470;2023-01-13T16:33:54;15.73;;;3.90;;
38972;SDS011;25333;50.762;4.470;2023-01-13T16:36:37;20.35;;;4.13;;
38972;SDS011;25333;50.762;4.470;2023-01-13T16:39:42;14.52;;;4.00;;
38972;SDS011;25333;50.762;4.470;2023-01-13T16:42:08;13.65;;;3.20;;
38972;SDS011;25333;50.762;4.470;2023-01-13T16:44:33;10.88;;;3.53;;
38972;SDS011;25333;50.762;4.470;2023-01-13T16:46:59;15.50;;;3.57;;
38972;SDS011;25333;50.762;4.470;2023-01-13T16:49:39;11.90;;;3.47;;
38972;SDS011;25333;50.762;4.470;2023-01-13T16:52:08;13.23;;;4.25;;
38972;SDS011;25333;50.762;4.470;2023-01-13T16:54:34;12.98;;;3.80;;
38972;SDS011;25333;50.762;4.470;2023-01-13T16:57:15;17.95;;;3.60;;
38972;SDS011;25333;50.762;4.470;2023-01-13T16:59:43;15.95;;;3.63;;
38972;SDS011;25333;50.762;4.470;2023-01-13T17:02:15;12.32;;;3.00;;
38972;SDS011;25333;50.762;4.470;2023-01-13T17:04:42;11.18;;;3.72;;
38972;SDS011;25333;50.762;4.470;2023-01-13T17:07:08;11.52;;;3.50;;
38972;SDS011;25333;50.762;4.470;2023-01-13T17:09:39;15.93;;;3.75;;
38972;SDS011;25333;50.762;4.470;2023-01-13T17:12:04;11.23;;;3.38;;
38972;SDS011;25333;50.762;4.470;2023-01-13T17:14:30;12.23;;;3.57;;
38972;SDS011;25333;50.762;4.470;2023-01-13T17:16:59;13.60;;;3.40;;
38972;SDS011;25333;50.762;4.470;2023-01-13T17:19:25;17.10;;;4.07;;
38972;SDS011;25333;50.762;4.470;2023-01-13T17:21:50;16.27;;;4.47;;
38972;SDS011;25333;50.762;4.470;2023-01-13T17:24:17;12.13;;;4.18;;
38972;SDS011;25333;50.762;4.470;2023-01-13T17:26:44;13.90;;;3.53;;
38972;SDS011;25333;50.762;4.470;2023-01-13T17:29:14;15.05;;;3.67;;
38972;SDS011;25333;50.762;4.470;2023-01-13T17:31:41;12.95;;;3.55;;
38972;SDS011;25333;50.762;4.470;2023-01-13T17:34:18;12.18;;;3.50;;
38972;SDS011;25333;50.762;4.470;2023-01-13T17:36:44;10.52;;;3.55;;
38972;SDS011;25333;50.762;4.470;2023-01-13T17:39:14;17.20;;;3.93;;
38972;SDS011;25333;50.762;4.470;2023-01-13T17:41:44;14.98;;;3.63;;
38972;SDS011;25333;50.762;4.470;2023-01-13T17:44:13;16.60;;;3.72;;
38972;SDS011;25333;50.762;4.470;2023-01-13T17:46:41;21.63;;;4.85;;
38972;SDS011;25333;50.762;4.470;2023-01-13T17:49:10;12.52;;;3.85;;
38972;SDS011;25333;50.762;4.470;2023-01-13T17:51:37;11.25;;;3.95;;
38972;SDS011;25333;50.762;4.470;2023-01-13T17:54:03;15.45;;;3.97;;